sensor_id;sensor_type;location;lat;lon;timestamp;P1;durP1;ratioP1;P2;durP2;ratioP2
21814;SDS011;11069;48.988;8.450;2022-08-19T00:01:38;17.00;;;15.60;;
21814;SDS011;11069;48.988;8.450;2022-08-19T00:04:07;17.75;;;16.15;;
21814;SDS011;11069;48.988;8.450;2022-08-19T00:06:34;16.90;;;15.40;;
21814;SDS011;11069;48.988;8.450;2022-08-19T00:09:02;17.42;;;15.85;;
21814;SDS011;11069;48.988;8.450;2022-08-19T00:11:30;17.48;;;15.90;;
21814;SDS011;11069;48.988;8.450;2022-08-19T00:13:56;16.48;;;14.90;;
21814;SDS011;11069;48.988;8.450;2022-08-19T00:16:22;16.50;;;15.10;;
21814;SDS011;11069;48.988;8.450;2022-08-19T00:18:49;18.15;;;16.27;;
21814;SDS011;11069;48.988;8.450;2022-08-19T00:21:15;16.98;;;15.48;;
21814;SDS011;11069;48.988;8.450;2022-08-19T00:23:41;17.58;;;15.98;;
21814;SDS011;11069;48.988;8.450;2022-08-19T00:26:08;17.10;;;15.60;;
21814;SDS011;11069;48.988;8.450;2022-08-19T00:28:34;18.02;;;16.30;;
21814;SDS011;11069;48.988;8.450;2022-08-19T00:31:01;17.48;;;15.95;;
21814;SDS011;11069;48.988;8.450;2022-08-19T00:33:28;17.60;;;16.05;;
21814;SDS011;11069;48.988;8.450;2022-08-19T00:35:57;17.55;;;16.05;;
21814;SDS011;11069;48.988;8.450;2022-08-19T00:38:29;18.00;;;16.48;;
21814;SDS011;11069;48.988;8.450;2022-08-19T00:40:55;16.83;;;15.32;;
21814;SDS011;11069;48.988;8.450;2022-08-19T00:43:22;16.35;;;15.00;;
21814;SDS011;11069;48.988;8.450;2022-08-19T00:45:50;17.63;;;16.13;;
21814;SDS011;11069;48.988;8.450;2022-08-19T00:48:17;16.83;;;15.32;;
21814;SDS011;11069;48.988;8.450;2022-08-19T00:50:44;17.35;;;15.88;;
21814;SDS011;11069;48.988;8.450;2022-08-19T00:53:13;17.02;;;15.40;;
21814;SDS011;11069;48.988;8.450;2022-08-19T00:55:42;17.75;;;16.17;;
21814;SDS011;11069;48.988;8.450;2022-08-19T00:58:12;18.15;;;16.45;;
21814;SDS011;11069;48.988;8.450;2022-08-19T01:00:40;17.92;;;16.23;;
21814;SDS011;11069;48.988;8.450;2022-08-19T01:03:06;19.27;;;17.58;;
21814;SDS011;11069;48.988;8.450;2022-08-19T01:05:34;19.05;;;17.27;;
21814;SDS011;11069;48.988;8.450;2022-08-19T01:08:02;19.05;;;16.92;;
21814;SDS011;11069;48.988;8.450;2022-08-19T01:10:31;19.02;;;17.10;;
21814;SDS011;11069;48.988;8.450;2022-08-19T01:12:59;18.23;;;16.58;;
21814;SDS011;11069;48.988;8.450;2022-08-19T01:15:28;19.23;;;17.45;;
21814;SDS011;11069;48.988;8.450;2022-08-19T01:17:59;19.90;;;18.10;;
21814;SDS011;11069;48.988;8.450;2022-08-19T01:20:29;20.35;;;18.48;;
21814;SDS011;11069;48.988;8.450;2022-08-19T01:22:56;20.65;;;18.75;;
21814;SDS011;11069;48.988;8.450;2022-08-19T01:25:30;19.88;;;17.95;;
21814;SDS011;11069;48.988;8.450;2022-08-19T01:28:02;20.52;;;18.50;;
21814;SDS011;11069;48.988;8.450;2022-08-19T01:30:30;21.08;;;19.27;;
21814;SDS011;11069;48.988;8.450;2022-08-19T01:32:59;21.67;;;19.67;;
21814;SDS011;11069;48.988;8.450;2022-08-19T01:35:26;22.88;;;20.77;;
21814;SDS011;11069;48.988;8.450;2022-08-19T01:37:54;22.02;;;19.88;;
21814;SDS011;11069;48.988;8.450;2022-08-19T01:40:26;20.60;;;18.80;;
21814;SDS011;11069;48.988;8.450;2022-08-19T01:45:22;20.98;;;19.05;;
21814;SDS011;11069;48.988;8.450;2022-08-19T01:47:50;19.38;;;17.77;;
21814;SDS011;11069;48.988;8.450;2022-08-19T01:50:16;20.42;;;18.38;;
21814;SDS011;11069;48.988;8.450;2022-08-19T01:52:43;21.23;;;19.30;;
21814;SDS011;11069;48.988;8.450;2022-08-19T01:55:14;20.40;;;18.50;;
21814;SDS011;11069;48.988;8.450;2022-08-19T01:57:42;19.08;;;17.20;;
21814;SDS011;11069;48.988;8.450;2022-08-19T02:00:12;20.40;;;18.63;;
21814;SDS011;11069;48.988;8.450;2022-08-19T02:02:40;22.38;;;20.48;;
21814;SDS011;11069;48.988;8.450;2022-08-19T02:05:06;22.23;;;20.30;;
21814;SDS011;11069;48.988;8.450;2022-08-19T02:07:33;22.85;;;20.75;;
21814;SDS011;11069;48.988;8.450;2022-08-19T02:10:04;22.97;;;20.60;;
21814;SDS011;11069;48.988;8.450;2022-08-19T02:12:32;21.85;;;20.02;;
21814;SDS011;11069;48.988;8.450;2022-08-19T02:14:58;21.83;;;19.88;;
21814;SDS011;11069;48.988;8.450;2022-08-19T02:17:26;21.63;;;19.63;;
21814;SDS011;11069;48.988;8.450;2022-08-19T02:19:53;22.42;;;20.52;;
21814;SDS011;11069;48.988;8.450;2022-08-19T02:22:20;21.70;;;19.70;;
21814;SDS011;11069;48.988;8.450;2022-08-19T02:24:46;22.55;;;20.42;;
21814;SDS011;11069;48.988;8.450;2022-08-19T02:27:12;22.30;;;20.23;;
21814;SDS011;11069;48.988;8.450;2022-08-19T02:29:39;22.65;;;20.27;;
21814;SDS011;11069;48.988;8.450;2022-08-19T02:32:04;22.50;;;20.50;;
21814;SDS011;11069;48.988;8.450;2022-08-19T02:34:30;23.67;;;21.58;;
21814;SDS011;11069;48.988;8.450;2022-08-19T02:36:56;23.83;;;21.75;;
21814;SDS011;11069;48.988;8.450;2022-08-19T02:39:21;24.42;;;22.13;;
21814;SDS011;11069;48.988;8.450;2022-08-19T02:41:47;25.88;;;23.48;;
21814;SDS011;11069;48.988;8.450;2022-08-19T02:44:14;26.10;;;23.60;;
21814;SDS011;11069;48.988;8.450;2022-08-19T02:46:40;25.30;;;23.00;;
21814;SDS011;11069;48.988;8.450;2022-08-19T02:49:07;25.75;;;23.33;;
21814;SDS011;11069;48.988;8.450;2022-08-19T02:51:37;23.38;;;21.27;;
21814;SDS011;11069;48.988;8.450;2022-08-19T02:54:06;27.25;;;24.63;;
21814;SDS011;11069;48.988;8.450;2022-08-19T02:56:36;26.42;;;23.92;;
21814;SDS011;11069;48.988;8.450;2022-08-19T02:59:03;26.67;;;24.05;;
21814;SDS011;11069;48.988;8.450;2022-08-19T03:01:33;27.95;;;25.45;;
21814;SDS011;11069;48.988;8.450;2022-08-19T03:04:00;24.85;;;22.38;;
21814;SDS011;11069;48.988;8.450;2022-08-19T03:06:28;27.30;;;24.50;;
21814;SDS011;11069;48.988;8.450;2022-08-19T03:08:55;27.45;;;25.05;;
21814;SDS011;11069;48.988;8.450;2022-08-19T03:13:48;26.42;;;23.92;;
21814;SDS011;11069;48.988;8.450;2022-08-19T03:16:15;27.45;;;24.85;;
21814;SDS011;11069;48.988;8.450;2022-08-19T03:18:42;28.17;;;25.50;;
21814;SDS011;11069;48.988;8.450;2022-08-19T03:21:08;28.02;;;25.30;;
21814;SDS011;11069;48.988;8.450;2022-08-19T03:23:34;28.70;;;25.77;;
21814;SDS011;11069;48.988;8.450;2022-08-19T03:26:03;28.42;;;25.92;;
21814;SDS011;11069;48.988;8.450;2022-08-19T03:28:30;27.77;;;25.23;;
21814;SDS011;11069;48.988;8.450;2022-08-19T03:31:01;26.55;;;24.05;;
21814;SDS011;11069;48.988;8.450;2022-08-19T03:33:29;27.20;;;24.77;;
21814;SDS011;11069;48.988;8.450;2022-08-19T03:35:59;27.05;;;24.65;;
21814;SDS011;11069;48.988;8.450;2022-08-19T03:38:26;25.88;;;23.65;;
21814;SDS011;11069;48.988;8.450;2022-08-19T03:40:51;24.83;;;22.65;;
21814;SDS011;11069;48.988;8.450;2022-08-19T03:43:17;24.45;;;22.25;;
21814;SDS011;11069;48.988;8.450;2022-08-19T03:45:43;26.02;;;23.60;;
21814;SDS011;11069;48.988;8.450;2022-08-19T03:48:08;25.13;;;22.92;;
21814;SDS011;11069;48.988;8.450;2022-08-19T03:50:38;26.67;;;24.38;;
21814;SDS011;11069;48.988;8.450;2022-08-19T03:53:04;28.52;;;25.85;;
21814;SDS011;11069;48.988;8.450;2022-08-19T03:55:30;26.90;;;24.50;;
21814;SDS011;11069;48.988;8.450;2022-08-19T03:57:55;25.35;;;23.10;;
21814;SDS011;11069;48.988;8.450;2022-08-19T04:00:21;26.25;;;24.02;;
21814;SDS011;11069;48.988;8.450;2022-08-19T04:02:47;28.38;;;25.88;;
21814;SDS011;11069;48.988;8.450;2022-08-19T04:05:12;29.48;;;26.83;;
21814;SDS011;11069;48.988;8.450;2022-08-19T04:07:39;28.98;;;26.33;;
21814;SDS011;11069;48.988;8.450;2022-08-19T04:10:04;27.70;;;25.15;;
21814;SDS011;11069;48.988;8.450;2022-08-19T04:12:30;30.45;;;27.65;;
21814;SDS011;11069;48.988;8.450;2022-08-19T04:14:56;30.70;;;27.77;;
21814;SDS011;11069;48.988;8.450;2022-08-19T04:17:23;30.63;;;28.00;;
21814;SDS011;11069;48.988;8.450;2022-08-19T04:19:49;31.67;;;28.77;;
21814;SDS011;11069;48.988;8.450;2022-08-19T04:22:15;30.35;;;27.60;;
21814;SDS011;11069;48.988;8.450;2022-08-19T04:24:40;29.95;;;27.13;;
21814;SDS011;11069;48.988;8.450;2022-08-19T04:27:06;29.38;;;26.77;;
21814;SDS011;11069;48.988;8.450;2022-08-19T04:29:32;29.75;;;26.98;;
21814;SDS011;11069;48.988;8.450;2022-08-19T04:31:58;29.50;;;26.67;;
21814;SDS011;11069;48.988;8.450;2022-08-19T04:34:25;34.35;;;31.15;;
21814;SDS011;11069;48.988;8.450;2022-08-19T04:36:53;36.42;;;32.92;;
21814;SDS011;11069;48.988;8.450;2022-08-19T04:39:21;35.35;;;31.92;;
21814;SDS011;11069;48.988;8.450;2022-08-19T04:42:15;36.53;;;33.08;;
21814;SDS011;11069;48.988;8.450;2022-08-19T04:45:01;37.38;;;33.92;;
21814;SDS011;11069;48.988;8.450;2022-08-19T04:47:29;36.08;;;32.83;;
21814;SDS011;11069;48.988;8.450;2022-08-19T04:49:55;35.38;;;32.00;;
21814;SDS011;11069;48.988;8.450;2022-08-19T04:52:22;35.53;;;32.35;;
21814;SDS011;11069;48.988;8.450;2022-08-19T04:54:47;33.55;;;30.45;;
21814;SDS011;11069;48.988;8.450;2022-08-19T04:57:13;35.03;;;31.65;;
21814;SDS011;11069;48.988;8.450;2022-08-19T04:59:39;34.72;;;31.40;;
21814;SDS011;11069;48.988;8.450;2022-08-19T05:02:06;33.88;;;30.67;;
21814;SDS011;11069;48.988;8.450;2022-08-19T05:04:33;36.10;;;32.22;;
21814;SDS011;11069;48.988;8.450;2022-08-19T05:07:00;36.35;;;32.80;;
21814;SDS011;11069;48.988;8.450;2022-08-19T05:09:26;37.05;;;33.45;;
21814;SDS011;11069;48.988;8.450;2022-08-19T05:11:52;35.47;;;32.03;;
21814;SDS011;11069;48.988;8.450;2022-08-19T05:14:18;38.15;;;32.95;;
21814;SDS011;11069;48.988;8.450;2022-08-19T05:16:45;33.47;;;30.40;;
21814;SDS011;11069;48.988;8.450;2022-08-19T05:19:11;35.97;;;31.33;;
21814;SDS011;11069;48.988;8.450;2022-08-19T05:21:55;35.15;;;30.70;;
21814;SDS011;11069;48.988;8.450;2022-08-19T05:24:39;33.90;;;30.38;;
21814;SDS011;11069;48.988;8.450;2022-08-19T05:27:05;32.58;;;27.63;;
21814;SDS011;11069;48.988;8.450;2022-08-19T05:29:31;32.55;;;29.20;;
21814;SDS011;11069;48.988;8.450;2022-08-19T05:31:59;30.20;;;27.23;;
21814;SDS011;11069;48.988;8.450;2022-08-19T05:34:25;32.50;;;29.08;;
21814;SDS011;11069;48.988;8.450;2022-08-19T05:36:53;29.75;;;26.92;;
21814;SDS011;11069;48.988;8.450;2022-08-19T05:39:22;31.80;;;27.40;;
21814;SDS011;11069;48.988;8.450;2022-08-19T05:42:01;31.40;;;27.55;;
21814;SDS011;11069;48.988;8.450;2022-08-19T05:44:34;30.73;;;27.73;;
21814;SDS011;11069;48.988;8.450;2022-08-19T05:47:32;28.77;;;25.90;;
21814;SDS011;11069;48.988;8.450;2022-08-19T05:49:58;27.42;;;23.88;;
21814;SDS011;11069;48.988;8.450;2022-08-19T05:52:23;27.63;;;24.88;;
21814;SDS011;11069;48.988;8.450;2022-08-19T05:54:49;28.65;;;25.60;;
21814;SDS011;11069;48.988;8.450;2022-08-19T05:57:16;30.73;;;27.48;;
21814;SDS011;11069;48.988;8.450;2022-08-19T05:59:42;31.13;;;28.17;;
21814;SDS011;11069;48.988;8.450;2022-08-19T06:02:10;33.13;;;28.70;;
21814;SDS011;11069;48.988;8.450;2022-08-19T06:04:36;29.15;;;26.45;;
21814;SDS011;11069;48.988;8.450;2022-08-19T06:07:02;30.10;;;27.30;;
21814;SDS011;11069;48.988;8.450;2022-08-19T06:09:29;29.95;;;26.95;;
21814;SDS011;11069;48.988;8.450;2022-08-19T06:11:56;28.95;;;26.17;;
21814;SDS011;11069;48.988;8.450;2022-08-19T06:14:25;28.08;;;25.48;;
21814;SDS011;11069;48.988;8.450;2022-08-19T06:16:52;28.17;;;25.48;;
21814;SDS011;11069;48.988;8.450;2022-08-19T06:19:19;28.30;;;25.50;;
21814;SDS011;11069;48.988;8.450;2022-08-19T06:21:48;28.25;;;25.48;;
21814;SDS011;11069;48.988;8.450;2022-08-19T06:24:16;28.30;;;25.48;;
21814;SDS011;11069;48.988;8.450;2022-08-19T06:26:44;28.00;;;25.23;;
21814;SDS011;11069;48.988;8.450;2022-08-19T06:29:12;28.70;;;25.88;;
21814;SDS011;11069;48.988;8.450;2022-08-19T06:31:42;28.65;;;25.88;;
21814;SDS011;11069;48.988;8.450;2022-08-19T06:34:09;30.70;;;27.52;;
21814;SDS011;11069;48.988;8.450;2022-08-19T06:36:37;29.38;;;26.42;;
21814;SDS011;11069;48.988;8.450;2022-08-19T06:39:11;29.20;;;26.33;;
21814;SDS011;11069;48.988;8.450;2022-08-19T06:41:40;29.70;;;26.77;;
21814;SDS011;11069;48.988;8.450;2022-08-19T06:44:08;29.92;;;26.90;;
21814;SDS011;11069;48.988;8.450;2022-08-19T06:46:35;29.38;;;26.55;;
21814;SDS011;11069;48.988;8.450;2022-08-19T06:49:01;28.33;;;25.25;;
21814;SDS011;11069;48.988;8.450;2022-08-19T06:51:26;27.65;;;24.80;;
21814;SDS011;11069;48.988;8.450;2022-08-19T06:53:53;25.83;;;23.33;;
21814;SDS011;11069;48.988;8.450;2022-08-19T06:56:22;27.13;;;24.27;;
21814;SDS011;11069;48.988;8.450;2022-08-19T06:58:50;26.80;;;24.33;;
21814;SDS011;11069;48.988;8.450;2022-08-19T07:01:18;25.63;;;22.95;;
21814;SDS011;11069;48.988;8.450;2022-08-19T07:03:44;24.92;;;22.50;;
21814;SDS011;11069;48.988;8.450;2022-08-19T07:06:12;25.27;;;22.75;;
21814;SDS011;11069;48.988;8.450;2022-08-19T07:08:40;25.67;;;23.25;;
21814;SDS011;11069;48.988;8.450;2022-08-19T07:11:14;24.42;;;22.10;;
21814;SDS011;11069;48.988;8.450;2022-08-19T07:13:42;24.00;;;21.67;;
21814;SDS011;11069;48.988;8.450;2022-08-19T07:16:11;23.60;;;20.92;;
21814;SDS011;11069;48.988;8.450;2022-08-19T07:18:39;23.70;;;21.27;;
21814;SDS011;11069;48.988;8.450;2022-08-19T07:21:05;22.02;;;20.00;;
21814;SDS011;11069;48.988;8.450;2022-08-19T07:23:40;22.15;;;20.17;;
21814;SDS011;11069;48.988;8.450;2022-08-19T07:26:18;22.75;;;20.63;;
21814;SDS011;11069;48.988;8.450;2022-08-19T07:28:52;22.65;;;20.38;;
21814;SDS011;11069;48.988;8.450;2022-08-19T07:31:20;21.35;;;19.25;;
21814;SDS011;11069;48.988;8.450;2022-08-19T07:33:48;21.70;;;19.48;;
21814;SDS011;11069;48.988;8.450;2022-08-19T07:36:26;21.67;;;19.48;;
21814;SDS011;11069;48.988;8.450;2022-08-19T07:38:57;21.20;;;18.85;;
21814;SDS011;11069;48.988;8.450;2022-08-19T07:41:26;21.40;;;19.33;;
21814;SDS011;11069;48.988;8.450;2022-08-19T07:43:53;21.25;;;19.05;;
21814;SDS011;11069;48.988;8.450;2022-08-19T07:46:19;19.25;;;17.42;;
21814;SDS011;11069;48.988;8.450;2022-08-19T07:48:47;21.70;;;19.60;;
21814;SDS011;11069;48.988;8.450;2022-08-19T07:51:15;20.23;;;18.13;;
21814;SDS011;11069;48.988;8.450;2022-08-19T07:53:44;21.30;;;19.07;;
21814;SDS011;11069;48.988;8.450;2022-08-19T07:56:11;19.25;;;17.45;;
21814;SDS011;11069;48.988;8.450;2022-08-19T07:58:39;18.45;;;16.55;;
21814;SDS011;11069;48.988;8.450;2022-08-19T08:01:08;18.98;;;17.08;;
21814;SDS011;11069;48.988;8.450;2022-08-19T08:03:36;19.83;;;17.60;;
21814;SDS011;11069;48.988;8.450;2022-08-19T08:06:21;20.02;;;18.02;;
21814;SDS011;11069;48.988;8.450;2022-08-19T08:09:05;18.85;;;16.98;;
21814;SDS011;11069;48.988;8.450;2022-08-19T08:11:42;18.83;;;16.38;;
21814;SDS011;11069;48.988;8.450;2022-08-19T08:14:14;17.80;;;16.10;;
21814;SDS011;11069;48.988;8.450;2022-08-19T08:16:41;19.52;;;16.58;;
21814;SDS011;11069;48.988;8.450;2022-08-19T08:19:09;16.98;;;15.40;;
21814;SDS011;11069;48.988;8.450;2022-08-19T08:21:35;17.35;;;15.75;;
21814;SDS011;11069;48.988;8.450;2022-08-19T08:24:00;16.83;;;15.07;;
21814;SDS011;11069;48.988;8.450;2022-08-19T08:26:26;15.73;;;14.13;;
21814;SDS011;11069;48.988;8.450;2022-08-19T08:28:52;15.95;;;13.55;;
21814;SDS011;11069;48.988;8.450;2022-08-19T08:31:18;14.43;;;13.02;;
21814;SDS011;11069;48.988;8.450;2022-08-19T08:33:45;15.65;;;14.10;;
21814;SDS011;11069;48.988;8.450;2022-08-19T08:36:11;17.00;;;12.65;;
21814;SDS011;11069;48.988;8.450;2022-08-19T08:38:39;15.38;;;12.57;;
21814;SDS011;11069;48.988;8.450;2022-08-19T08:41:13;13.40;;;12.00;;
21814;SDS011;11069;48.988;8.450;2022-08-19T08:43:49;13.93;;;11.77;;
21814;SDS011;11069;48.988;8.450;2022-08-19T08:46:35;14.32;;;11.70;;
21814;SDS011;11069;48.988;8.450;2022-08-19T08:49:19;12.07;;;10.80;;
21814;SDS011;11069;48.988;8.450;2022-08-19T08:54:36;13.13;;;10.60;;
21814;SDS011;11069;48.988;8.450;2022-08-19T08:57:15;15.25;;;11.20;;
21814;SDS011;11069;48.988;8.450;2022-08-19T08:59:49;14.35;;;10.23;;
21814;SDS011;11069;48.988;8.450;2022-08-19T09:02:18;13.05;;;9.45;;
21814;SDS011;11069;48.988;8.450;2022-08-19T09:04:44;15.10;;;10.43;;
21814;SDS011;11069;48.988;8.450;2022-08-19T09:09:52;9.27;;;8.38;;
21814;SDS011;11069;48.988;8.450;2022-08-19T09:15:06;9.63;;;8.65;;
21814;SDS011;11069;48.988;8.450;2022-08-19T09:17:34;9.38;;;7.90;;
21814;SDS011;11069;48.988;8.450;2022-08-19T09:20:02;8.90;;;7.78;;
21814;SDS011;11069;48.988;8.450;2022-08-19T09:22:39;12.90;;;7.72;;
21814;SDS011;11069;48.988;8.450;2022-08-19T09:25:09;10.25;;;8.25;;
21814;SDS011;11069;48.988;8.450;2022-08-19T09:27:38;10.95;;;8.00;;
21814;SDS011;11069;48.988;8.450;2022-08-19T09:30:05;8.93;;;7.22;;
21814;SDS011;11069;48.988;8.450;2022-08-19T09:32:32;10.13;;;8.05;;
21814;SDS011;11069;48.988;8.450;2022-08-19T09:34:58;10.63;;;7.93;;
21814;SDS011;11069;48.988;8.450;2022-08-19T09:37:25;9.02;;;7.80;;
21814;SDS011;11069;48.988;8.450;2022-08-19T09:39:51;12.88;;;9.02;;
21814;SDS011;11069;48.988;8.450;2022-08-19T09:42:17;9.52;;;7.85;;
21814;SDS011;11069;48.988;8.450;2022-08-19T09:44:43;11.13;;;8.63;;
21814;SDS011;11069;48.988;8.450;2022-08-19T09:47:09;11.10;;;8.88;;
21814;SDS011;11069;48.988;8.450;2022-08-19T09:49:37;9.57;;;8.32;;
21814;SDS011;11069;48.988;8.450;2022-08-19T09:52:07;11.95;;;7.80;;
21814;SDS011;11069;48.988;8.450;2022-08-19T09:54:34;10.27;;;6.82;;
21814;SDS011;11069;48.988;8.450;2022-08-19T09:56:59;10.18;;;7.70;;
21814;SDS011;11069;48.988;8.450;2022-08-19T09:59:25;11.23;;;6.93;;
21814;SDS011;11069;48.988;8.450;2022-08-19T10:01:51;9.73;;;6.45;;
21814;SDS011;11069;48.988;8.450;2022-08-19T10:04:17;7.10;;;5.65;;
21814;SDS011;11069;48.988;8.450;2022-08-19T10:06:43;7.18;;;6.32;;
21814;SDS011;11069;48.988;8.450;2022-08-19T10:09:09;8.07;;;7.25;;
21814;SDS011;11069;48.988;8.450;2022-08-19T10:11:36;6.93;;;6.20;;
21814;SDS011;11069;48.988;8.450;2022-08-19T10:14:04;7.80;;;7.00;;
21814;SDS011;11069;48.988;8.450;2022-08-19T10:16:33;9.10;;;6.80;;
21814;SDS011;11069;48.988;8.450;2022-08-19T10:19:00;9.68;;;6.85;;
21814;SDS011;11069;48.988;8.450;2022-08-19T10:21:27;10.10;;;6.93;;
21814;SDS011;11069;48.988;8.450;2022-08-19T10:23:56;11.55;;;7.38;;
21814;SDS011;11069;48.988;8.450;2022-08-19T10:26:25;8.15;;;5.82;;
21814;SDS011;11069;48.988;8.450;2022-08-19T10:28:53;8.15;;;6.60;;
21814;SDS011;11069;48.988;8.450;2022-08-19T10:31:24;8.38;;;7.57;;
21814;SDS011;11069;48.988;8.450;2022-08-19T10:33:54;7.53;;;6.72;;
21814;SDS011;11069;48.988;8.450;2022-08-19T10:36:28;9.20;;;6.83;;
21814;SDS011;11069;48.988;8.450;2022-08-19T10:38:58;10.27;;;7.15;;
21814;SDS011;11069;48.988;8.450;2022-08-19T10:41:27;7.25;;;6.47;;
21814;SDS011;11069;48.988;8.450;2022-08-19T10:43:56;6.63;;;5.90;;
21814;SDS011;11069;48.988;8.450;2022-08-19T10:46:24;7.57;;;5.40;;
21814;SDS011;11069;48.988;8.450;2022-08-19T10:48:51;7.18;;;6.45;;
21814;SDS011;11069;48.988;8.450;2022-08-19T10:51:17;8.63;;;6.22;;
21814;SDS011;11069;48.988;8.450;2022-08-19T10:54:02;6.90;;;6.20;;
21814;SDS011;11069;48.988;8.450;2022-08-19T10:56:28;7.00;;;6.15;;
21814;SDS011;11069;48.988;8.450;2022-08-19T10:59:13;9.45;;;6.60;;
21814;SDS011;11069;48.988;8.450;2022-08-19T11:01:41;7.25;;;6.50;;
21814;SDS011;11069;48.988;8.450;2022-08-19T11:04:07;7.60;;;5.95;;
21814;SDS011;11069;48.988;8.450;2022-08-19T11:09:08;9.17;;;6.80;;
21814;SDS011;11069;48.988;8.450;2022-08-19T11:11:34;7.38;;;6.50;;
21814;SDS011;11069;48.988;8.450;2022-08-19T11:14:09;8.38;;;6.43;;
21814;SDS011;11069;48.988;8.450;2022-08-19T11:16:36;7.47;;;6.60;;
21814;SDS011;11069;48.988;8.450;2022-08-19T11:19:04;8.52;;;7.28;;
21814;SDS011;11069;48.988;8.450;2022-08-19T11:21:33;10.73;;;6.75;;
21814;SDS011;11069;48.988;8.450;2022-08-19T11:24:02;8.57;;;7.43;;
21814;SDS011;11069;48.988;8.450;2022-08-19T11:26:31;8.55;;;7.13;;
21814;SDS011;11069;48.988;8.450;2022-08-19T11:28:57;8.25;;;7.22;;
21814;SDS011;11069;48.988;8.450;2022-08-19T11:31:29;7.85;;;6.35;;
21814;SDS011;11069;48.988;8.450;2022-08-19T11:33:57;11.82;;;6.35;;
21814;SDS011;11069;48.988;8.450;2022-08-19T11:36:24;7.05;;;5.75;;
21814;SDS011;11069;48.988;8.450;2022-08-19T11:38:51;7.07;;;6.07;;
21814;SDS011;11069;48.988;8.450;2022-08-19T11:41:18;6.53;;;5.80;;
21814;SDS011;11069;48.988;8.450;2022-08-19T11:43:48;11.70;;;6.75;;
21814;SDS011;11069;48.988;8.450;2022-08-19T11:46:14;9.65;;;6.82;;
21814;SDS011;11069;48.988;8.450;2022-08-19T11:48:41;9.52;;;7.32;;
21814;SDS011;11069;48.988;8.450;2022-08-19T11:51:08;8.55;;;7.10;;
21814;SDS011;11069;48.988;8.450;2022-08-19T11:53:36;7.75;;;6.50;;
21814;SDS011;11069;48.988;8.450;2022-08-19T11:56:02;9.90;;;7.90;;
21814;SDS011;11069;48.988;8.450;2022-08-19T11:58:29;7.60;;;6.90;;
21814;SDS011;11069;48.988;8.450;2022-08-19T12:00:55;7.18;;;6.43;;
21814;SDS011;11069;48.988;8.450;2022-08-19T12:03:21;7.03;;;6.40;;
21814;SDS011;11069;48.988;8.450;2022-08-19T12:05:47;7.25;;;6.57;;
21814;SDS011;11069;48.988;8.450;2022-08-19T12:08:14;7.53;;;6.35;;
21814;SDS011;11069;48.988;8.450;2022-08-19T12:10:41;7.28;;;6.57;;
21814;SDS011;11069;48.988;8.450;2022-08-19T12:13:08;6.30;;;5.70;;
21814;SDS011;11069;48.988;8.450;2022-08-19T12:15:35;8.55;;;6.18;;
21814;SDS011;11069;48.988;8.450;2022-08-19T12:18:02;7.53;;;6.30;;
21814;SDS011;11069;48.988;8.450;2022-08-19T12:20:28;8.55;;;6.07;;
21814;SDS011;11069;48.988;8.450;2022-08-19T12:22:53;7.05;;;6.38;;
21814;SDS011;11069;48.988;8.450;2022-08-19T12:25:19;8.52;;;6.60;;
21814;SDS011;11069;48.988;8.450;2022-08-19T12:27:45;6.65;;;6.05;;
21814;SDS011;11069;48.988;8.450;2022-08-19T12:30:12;9.07;;;6.45;;
21814;SDS011;11069;48.988;8.450;2022-08-19T12:32:39;7.32;;;6.63;;
21814;SDS011;11069;48.988;8.450;2022-08-19T12:35:05;8.10;;;6.75;;
21814;SDS011;11069;48.988;8.450;2022-08-19T12:37:31;9.63;;;6.90;;
21814;SDS011;11069;48.988;8.450;2022-08-19T12:39:57;7.28;;;6.18;;
21814;SDS011;11069;48.988;8.450;2022-08-19T12:42:23;6.68;;;6.03;;
21814;SDS011;11069;48.988;8.450;2022-08-19T12:44:49;7.70;;;7.00;;
21814;SDS011;11069;48.988;8.450;2022-08-19T12:47:16;8.35;;;6.10;;
21814;SDS011;11069;48.988;8.450;2022-08-19T12:49:43;7.65;;;7.00;;
21814;SDS011;11069;48.988;8.450;2022-08-19T12:52:09;7.53;;;6.35;;
21814;SDS011;11069;48.988;8.450;2022-08-19T12:54:36;7.40;;;6.70;;
21814;SDS011;11069;48.988;8.450;2022-08-19T12:57:06;9.05;;;6.72;;
21814;SDS011;11069;48.988;8.450;2022-08-19T12:59:33;9.27;;;6.65;;
21814;SDS011;11069;48.988;8.450;2022-08-19T13:02:01;7.10;;;6.40;;
21814;SDS011;11069;48.988;8.450;2022-08-19T13:04:31;9.03;;;6.47;;
21814;SDS011;11069;48.988;8.450;2022-08-19T13:06:59;6.90;;;6.25;;
21814;SDS011;11069;48.988;8.450;2022-08-19T13:09:25;6.97;;;6.00;;
21814;SDS011;11069;48.988;8.450;2022-08-19T13:11:51;6.53;;;5.93;;
21814;SDS011;11069;48.988;8.450;2022-08-19T13:14:17;5.85;;;5.25;;
21814;SDS011;11069;48.988;8.450;2022-08-19T13:16:43;6.22;;;4.93;;
21814;SDS011;11069;48.988;8.450;2022-08-19T13:19:09;6.70;;;6.00;;
21814;SDS011;11069;48.988;8.450;2022-08-19T13:21:35;6.45;;;5.40;;
21814;SDS011;11069;48.988;8.450;2022-08-19T13:24:01;5.22;;;4.70;;
21814;SDS011;11069;48.988;8.450;2022-08-19T13:26:27;7.35;;;5.18;;
21814;SDS011;11069;48.988;8.450;2022-08-19T13:28:52;5.72;;;5.22;;
21814;SDS011;11069;48.988;8.450;2022-08-19T13:31:39;5.28;;;4.78;;
21814;SDS011;11069;48.988;8.450;2022-08-19T13:34:29;5.28;;;4.80;;
21814;SDS011;11069;48.988;8.450;2022-08-19T13:36:58;5.35;;;4.85;;
21814;SDS011;11069;48.988;8.450;2022-08-19T13:39:24;8.05;;;4.80;;
21814;SDS011;11069;48.988;8.450;2022-08-19T13:41:50;5.45;;;4.95;;
21814;SDS011;11069;48.988;8.450;2022-08-19T13:44:16;6.43;;;5.72;;
21814;SDS011;11069;48.988;8.450;2022-08-19T13:46:46;4.78;;;4.43;;
21814;SDS011;11069;48.988;8.450;2022-08-19T13:49:13;4.97;;;4.55;;
21814;SDS011;11069;48.988;8.450;2022-08-19T13:51:40;5.10;;;4.47;;
21814;SDS011;11069;48.988;8.450;2022-08-19T13:54:07;4.15;;;3.85;;
21814;SDS011;11069;48.988;8.450;2022-08-19T13:56:34;4.15;;;3.60;;
21814;SDS011;11069;48.988;8.450;2022-08-19T13:59:00;3.20;;;3.00;;
21814;SDS011;11069;48.988;8.450;2022-08-19T14:01:26;4.78;;;3.25;;
21814;SDS011;11069;48.988;8.450;2022-08-19T14:03:52;3.13;;;2.90;;
21814;SDS011;11069;48.988;8.450;2022-08-19T14:06:18;5.57;;;2.95;;
21814;SDS011;11069;48.988;8.450;2022-08-19T14:08:45;3.38;;;2.80;;
21814;SDS011;11069;48.988;8.450;2022-08-19T14:11:11;7.38;;;2.85;;
21814;SDS011;11069;48.988;8.450;2022-08-19T14:13:36;4.38;;;2.78;;
21814;SDS011;11069;48.988;8.450;2022-08-19T14:16:06;3.45;;;3.15;;
21814;SDS011;11069;48.988;8.450;2022-08-19T14:18:33;2.92;;;2.72;;
21814;SDS011;11069;48.988;8.450;2022-08-19T14:20:59;3.53;;;3.22;;
21814;SDS011;11069;48.988;8.450;2022-08-19T14:23:25;5.65;;;3.33;;
21814;SDS011;11069;48.988;8.450;2022-08-19T14:25:51;3.90;;;3.15;;
21814;SDS011;11069;48.988;8.450;2022-08-19T14:28:16;6.43;;;3.58;;
21814;SDS011;11069;48.988;8.450;2022-08-19T14:30:42;3.97;;;3.63;;
21814;SDS011;11069;48.988;8.450;2022-08-19T14:33:09;5.95;;;3.70;;
21814;SDS011;11069;48.988;8.450;2022-08-19T14:35:35;5.82;;;3.92;;
21814;SDS011;11069;48.988;8.450;2022-08-19T14:38:02;4.00;;;3.60;;
21814;SDS011;11069;48.988;8.450;2022-08-19T14:40:30;3.92;;;3.60;;
21814;SDS011;11069;48.988;8.450;2022-08-19T14:42:57;7.68;;;3.80;;
21814;SDS011;11069;48.988;8.450;2022-08-19T14:45:29;4.18;;;3.75;;
21814;SDS011;11069;48.988;8.450;2022-08-19T14:47:59;4.32;;;3.70;;
21814;SDS011;11069;48.988;8.450;2022-08-19T14:50:25;4.05;;;3.65;;
21814;SDS011;11069;48.988;8.450;2022-08-19T14:52:57;4.95;;;3.72;;